Terminal Aerodrome Forecast
Issued by NWS

Home | Current Version | Previous Version | Text Only | Print | Product List | Glossary On
Versions: 1 2 3 4 5 6 7 8 9 10 11 12 13 14 15
000
FTUS43 KGLD 211000 AAA
TAFMCK
TAF AMD
KMCK 211034Z 2111/2206 35016KT P6SM FEW120
     FM211400 02022G30KT P6SM SCT120
     FM211800 04010KT P6SM SCT200
     FM220200 VRB05KT P6SM SKC=

USA.gov is the U.S. government's official web portal to all federal, state and local government web resources and services.